sensor_id;sensor_type;location;lat;lon;timestamp;pressure;altitude;pressure_sealevel;temperature;humidity
75317;BME280;63913;51.492;10.368;2023-12-29T00:01:14;97928.84;;;7.43;78.92
75317;BME280;63913;51.492;10.368;2023-12-29T00:03:40;97938.09;;;7.38;79.68
75317;BME280;63913;51.492;10.368;2023-12-29T00:06:06;97919.41;;;7.41;79.02
75317;BME280;63913;51.492;10.368;2023-12-29T00:08:31;97915.97;;;7.40;79.22
75317;BME280;63913;51.492;10.368;2023-12-29T00:10:57;97915.06;;;7.38;79.28
75317;BME280;63913;51.492;10.368;2023-12-29T00:13:22;97901.34;;;7.35;79.51
75317;BME280;63913;51.492;10.368;2023-12-29T00:15:52;97906.56;;;7.38;79.31
75317;BME280;63913;51.492;10.368;2023-12-29T00:18:18;97906.56;;;7.39;79.64
75317;BME280;63913;51.492;10.368;2023-12-29T00:20:43;97907.44;;;7.40;79.22
75317;BME280;63913;51.492;10.368;2023-12-29T00:23:08;97907.41;;;7.38;79.53
75317;BME280;63913;51.492;10.368;2023-12-29T00:25:37;97875.84;;;7.36;80.07
75317;BME280;63913;51.492;10.368;2023-12-29T00:28:03;97879.13;;;7.32;79.81
75317;BME280;63913;51.492;10.368;2023-12-29T00:30:29;97876.50;;;7.29;79.94
75317;BME280;63913;51.492;10.368;2023-12-29T00:32:57;97871.41;;;7.31;79.29
75317;BME280;63913;51.492;10.368;2023-12-29T00:35:23;97880.03;;;7.34;78.93
75317;BME280;63913;51.492;10.368;2023-12-29T00:37:50;97878.25;;;7.32;79.27
75317;BME280;63913;51.492;10.368;2023-12-29T00:40:15;97870.63;;;7.33;78.84
75317;BME280;63913;51.492;10.368;2023-12-29T00:42:41;97881.69;;;7.32;79.24
75317;BME280;63913;51.492;10.368;2023-12-29T00:45:07;97888.34;;;7.25;79.54
75317;BME280;63913;51.492;10.368;2023-12-29T00:47:33;97863.72;;;7.29;79.53
75317;BME280;63913;51.492;10.368;2023-12-29T00:49:58;97866.16;;;7.24;79.68
75317;BME280;63913;51.492;10.368;2023-12-29T00:52:24;97860.22;;;7.25;79.88
75317;BME280;63913;51.492;10.368;2023-12-29T00:54:49;97859.38;;;7.26;79.89
75317;BME280;63913;51.492;10.368;2023-12-29T00:57:14;97860.94;;;7.20;80.02
75317;BME280;63913;51.492;10.368;2023-12-29T00:59:41;97857.56;;;7.22;80.15
75317;BME280;63913;51.492;10.368;2023-12-29T01:02:07;97872.03;;;7.20;80.14
75317;BME280;63913;51.492;10.368;2023-12-29T01:04:33;97876.97;;;7.14;80.72
75317;BME280;63913;51.492;10.368;2023-12-29T01:06:59;97864.38;;;7.20;80.39
75317;BME280;63913;51.492;10.368;2023-12-29T01:09:26;97855.88;;;7.21;80.53
75317;BME280;63913;51.492;10.368;2023-12-29T01:11:51;97855.00;;;7.22;80.31
75317;BME280;63913;51.492;10.368;2023-12-29T01:14:17;97845.94;;;7.34;79.72
75317;BME280;63913;51.492;10.368;2023-12-29T01:16:42;97838.25;;;7.34;79.87
75317;BME280;63913;51.492;10.368;2023-12-29T01:19:09;97847.63;;;7.33;79.81
75317;BME280;63913;51.492;10.368;2023-12-29T01:21:37;97846.00;;;7.37;79.66
75317;BME280;63913;51.492;10.368;2023-12-29T01:24:02;97851.09;;;7.35;79.93
75317;BME280;63913;51.492;10.368;2023-12-29T01:26:36;97852.09;;;7.42;79.75
75317;BME280;63913;51.492;10.368;2023-12-29T01:29:01;97859.84;;;7.46;79.26
75317;BME280;63913;51.492;10.368;2023-12-29T01:34:55;97848.03;;;7.50;79.48
75317;BME280;63913;51.492;10.368;2023-12-29T01:37:20;97842.91;;;7.50;79.42
75317;BME280;63913;51.492;10.368;2023-12-29T01:39:46;97850.66;;;7.53;79.17
75317;BME280;63913;51.492;10.368;2023-12-29T01:42:11;97848.19;;;7.57;79.11
75317;BME280;63913;51.492;10.368;2023-12-29T01:44:37;97845.56;;;7.54;79.70
75317;BME280;63913;51.492;10.368;2023-12-29T01:47:05;97837.88;;;7.54;79.71
75317;BME280;63913;51.492;10.368;2023-12-29T01:49:36;97831.16;;;7.58;79.37
75317;BME280;63913;51.492;10.368;2023-12-29T01:52:01;97820.16;;;7.60;79.16
75317;BME280;63913;51.492;10.368;2023-12-29T01:54:31;97826.91;;;7.58;79.88
75317;BME280;63913;51.492;10.368;2023-12-29T01:56:59;97815.91;;;7.61;79.68
75317;BME280;63913;51.492;10.368;2023-12-29T01:59:26;97820.28;;;7.66;79.58
75317;BME280;63913;51.492;10.368;2023-12-29T02:01:54;97828.78;;;7.65;79.64
75317;BME280;63913;51.492;10.368;2023-12-29T02:04:26;97812.69;;;7.70;79.76
75317;BME280;63913;51.492;10.368;2023-12-29T02:06:52;97816.06;;;7.69;79.81
75317;BME280;63913;51.492;10.368;2023-12-29T02:09:17;97795.50;;;7.65;79.72
75317;BME280;63913;51.492;10.368;2023-12-29T02:11:44;97798.97;;;7.68;79.65
75317;BME280;63913;51.492;10.368;2023-12-29T02:14:10;97793.00;;;7.67;79.91
75317;BME280;63913;51.492;10.368;2023-12-29T02:19:46;97788.88;;;7.74;79.82
75317;BME280;63913;51.492;10.368;2023-12-29T02:22:12;97796.47;;;7.69;79.90
75317;BME280;63913;51.492;10.368;2023-12-29T02:24:38;97787.19;;;7.74;79.37
75317;BME280;63913;51.492;10.368;2023-12-29T02:27:23;97796.59;;;7.75;79.72
75317;BME280;63913;51.492;10.368;2023-12-29T02:32:33;97789.66;;;7.70;79.91
75317;BME280;63913;51.492;10.368;2023-12-29T02:34:59;97777.72;;;7.72;79.55
75317;BME280;63913;51.492;10.368;2023-12-29T02:37:26;97781.16;;;7.72;79.85
75317;BME280;63913;51.492;10.368;2023-12-29T02:39:52;97781.97;;;7.70;79.70
75317;BME280;63913;51.492;10.368;2023-12-29T02:42:18;97771.69;;;7.68;79.39
75317;BME280;63913;51.492;10.368;2023-12-29T02:44:43;97770.06;;;7.72;79.18
75317;BME280;63913;51.492;10.368;2023-12-29T02:47:08;97768.38;;;7.72;78.80
75317;BME280;63913;51.492;10.368;2023-12-29T02:49:34;97772.72;;;7.76;78.71
75317;BME280;63913;51.492;10.368;2023-12-29T02:51:59;97781.28;;;7.77;79.39
75317;BME280;63913;51.492;10.368;2023-12-29T02:54:24;97747.31;;;7.84;77.99
75317;BME280;63913;51.492;10.368;2023-12-29T02:56:50;97773.63;;;7.78;78.62
75317;BME280;63913;51.492;10.368;2023-12-29T02:59:15;97755.72;;;7.80;78.51
75317;BME280;63913;51.492;10.368;2023-12-29T03:01:40;97744.59;;;7.76;78.96
75317;BME280;63913;51.492;10.368;2023-12-29T03:04:06;97745.50;;;7.80;78.75
75317;BME280;63913;51.492;10.368;2023-12-29T03:06:33;97754.94;;;7.82;78.60
75317;BME280;63913;51.492;10.368;2023-12-29T03:08:59;97750.78;;;7.87;77.88
75317;BME280;63913;51.492;10.368;2023-12-29T03:11:25;97743.00;;;7.83;78.31
75317;BME280;63913;51.492;10.368;2023-12-29T03:13:50;97750.69;;;7.83;78.30
75317;BME280;63913;51.492;10.368;2023-12-29T03:16:15;97761.69;;;7.79;78.67
75317;BME280;63913;51.492;10.368;2023-12-29T03:18:41;97745.50;;;7.80;78.25
75317;BME280;63913;51.492;10.368;2023-12-29T03:21:07;97743.72;;;7.76;78.70
75317;BME280;63913;51.492;10.368;2023-12-29T03:23:32;97730.03;;;7.74;78.89
75317;BME280;63913;51.492;10.368;2023-12-29T03:25:58;97724.97;;;7.77;78.24
75317;BME280;63913;51.492;10.368;2023-12-29T03:28:23;97732.69;;;7.80;78.33
75317;BME280;63913;51.492;10.368;2023-12-29T03:30:48;97726.78;;;7.82;77.64
75317;BME280;63913;51.492;10.368;2023-12-29T03:33:15;97742.94;;;7.78;77.88
75317;BME280;63913;51.492;10.368;2023-12-29T03:35:40;97742.97;;;7.81;77.91
75317;BME280;63913;51.492;10.368;2023-12-29T03:38:06;97745.56;;;7.83;77.72
75317;BME280;63913;51.492;10.368;2023-12-29T03:40:32;97731.16;;;7.88;77.43
75317;BME280;63913;51.492;10.368;2023-12-29T03:42:58;97716.78;;;7.93;76.81
75317;BME280;63913;51.492;10.368;2023-12-29T03:45:23;97722.66;;;7.89;77.30
75317;BME280;63913;51.492;10.368;2023-12-29T03:47:49;97729.47;;;7.88;77.30
75317;BME280;63913;51.492;10.368;2023-12-29T03:50:14;97716.66;;;7.88;77.47
75317;BME280;63913;51.492;10.368;2023-12-29T03:52:39;97726.03;;;7.88;77.54
75317;BME280;63913;51.492;10.368;2023-12-29T03:55:05;97726.91;;;7.88;77.91
75317;BME280;63913;51.492;10.368;2023-12-29T03:57:31;97705.72;;;7.94;77.57
75317;BME280;63913;51.492;10.368;2023-12-29T03:59:56;97700.66;;;7.98;77.24
75317;BME280;63913;51.492;10.368;2023-12-29T04:02:21;97701.44;;;7.93;78.18
75317;BME280;63913;51.492;10.368;2023-12-29T04:04:47;97696.19;;;7.88;78.40
75317;BME280;63913;51.492;10.368;2023-12-29T04:07:12;97701.34;;;7.90;78.35
75317;BME280;63913;51.492;10.368;2023-12-29T04:09:38;97697.84;;;7.85;78.44
75317;BME280;63913;51.492;10.368;2023-12-29T04:12:03;97690.31;;;7.92;78.09
75317;BME280;63913;51.492;10.368;2023-12-29T04:14:28;97680.06;;;7.91;78.50
75317;BME280;63913;51.492;10.368;2023-12-29T04:16:54;97675.00;;;7.95;78.17
75317;BME280;63913;51.492;10.368;2023-12-29T04:19:20;97671.56;;;7.93;78.39
75317;BME280;63913;51.492;10.368;2023-12-29T04:21:46;97697.94;;;7.89;78.71
75317;BME280;63913;51.492;10.368;2023-12-29T04:24:12;97673.22;;;7.91;78.78
75317;BME280;63913;51.492;10.368;2023-12-29T04:26:37;97677.53;;;7.92;78.49
75317;BME280;63913;51.492;10.368;2023-12-29T04:29:03;97680.13;;;7.95;78.66
75317;BME280;63913;51.492;10.368;2023-12-29T04:31:28;97665.56;;;7.91;78.93
75317;BME280;63913;51.492;10.368;2023-12-29T04:33:54;97668.97;;;7.92;79.25
75317;BME280;63913;51.492;10.368;2023-12-29T04:36:19;97663.97;;;7.98;78.86
75317;BME280;63913;51.492;10.368;2023-12-29T04:38:44;97662.22;;;7.94;78.98
75317;BME280;63913;51.492;10.368;2023-12-29T04:41:12;97678.34;;;7.91;79.53
75317;BME280;63913;51.492;10.368;2023-12-29T04:43:38;97667.19;;;7.88;80.23
75317;BME280;63913;51.492;10.368;2023-12-29T04:46:03;97657.78;;;7.87;80.52
75317;BME280;63913;51.492;10.368;2023-12-29T04:48:28;97674.00;;;7.86;81.51
75317;BME280;63913;51.492;10.368;2023-12-29T04:50:54;97667.97;;;7.84;81.38
75317;BME280;63913;51.492;10.368;2023-12-29T04:53:19;97660.34;;;7.87;80.54
75317;BME280;63913;51.492;10.368;2023-12-29T04:55:44;97655.22;;;7.85;80.71
75317;BME280;63913;51.492;10.368;2023-12-29T04:58:10;97648.31;;;7.83;81.41
75317;BME280;63913;51.492;10.368;2023-12-29T05:00:35;97646.66;;;7.85;80.39
75317;BME280;63913;51.492;10.368;2023-12-29T05:03:00;97646.56;;;7.80;80.86
75317;BME280;63913;51.492;10.368;2023-12-29T05:05:26;97641.41;;;7.79;80.55
75317;BME280;63913;51.492;10.368;2023-12-29T05:07:51;97643.13;;;7.80;80.56
75317;BME280;63913;51.492;10.368;2023-12-29T05:10:16;97638.81;;;7.76;80.84
75317;BME280;63913;51.492;10.368;2023-12-29T05:12:42;97643.13;;;7.78;80.63
75317;BME280;63913;51.492;10.368;2023-12-29T05:15:07;97639.78;;;7.82;80.36
75317;BME280;63913;51.492;10.368;2023-12-29T05:17:32;97662.78;;;7.81;80.58
75317;BME280;63913;51.492;10.368;2023-12-29T05:19:59;97643.22;;;7.83;80.11
75317;BME280;63913;51.492;10.368;2023-12-29T05:22:24;97650.94;;;7.84;80.39
75317;BME280;63913;51.492;10.368;2023-12-29T05:24:49;97669.66;;;7.83;80.62
75317;BME280;63913;51.492;10.368;2023-12-29T05:27:15;97656.88;;;7.83;80.70
75317;BME280;63913;51.492;10.368;2023-12-29T05:29:41;97687.59;;;7.83;81.00
75317;BME280;63913;51.492;10.368;2023-12-29T05:32:06;97655.22;;;7.87;80.67
75317;BME280;63913;51.492;10.368;2023-12-29T05:34:32;97661.22;;;7.89;80.67
75317;BME280;63913;51.492;10.368;2023-12-29T05:36:57;97673.22;;;7.91;80.17
75317;BME280;63913;51.492;10.368;2023-12-29T05:39:23;97663.00;;;7.91;79.79
75317;BME280;63913;51.492;10.368;2023-12-29T05:41:48;97660.38;;;7.88;80.72
75317;BME280;63913;51.492;10.368;2023-12-29T05:44:13;97655.34;;;7.93;80.17
75317;BME280;63913;51.492;10.368;2023-12-29T05:46:39;97660.44;;;7.91;80.60
75317;BME280;63913;51.492;10.368;2023-12-29T05:49:04;97653.66;;;7.93;80.10
75317;BME280;63913;51.492;10.368;2023-12-29T05:51:29;97670.69;;;7.91;80.70
75317;BME280;63913;51.492;10.368;2023-12-29T05:53:55;97682.59;;;7.91;81.12
75317;BME280;63913;51.492;10.368;2023-12-29T05:56:20;97671.56;;;7.93;80.66
75317;BME280;63913;51.492;10.368;2023-12-29T05:58:45;97672.47;;;7.97;80.54
75317;BME280;63913;51.492;10.368;2023-12-29T06:01:10;97691.22;;;7.96;80.56
75317;BME280;63913;51.492;10.368;2023-12-29T06:03:36;97680.19;;;7.98;80.19
75317;BME280;63913;51.492;10.368;2023-12-29T06:06:02;97698.06;;;7.97;81.15
75317;BME280;63913;51.492;10.368;2023-12-29T06:08:27;97684.38;;;7.95;80.82
75317;BME280;63913;51.492;10.368;2023-12-29T06:10:53;97690.41;;;7.97;80.87
75317;BME280;63913;51.492;10.368;2023-12-29T06:13:18;97675.91;;;7.97;80.88
75317;BME280;63913;51.492;10.368;2023-12-29T06:15:43;97681.88;;;7.98;80.65
75317;BME280;63913;51.492;10.368;2023-12-29T06:18:09;97669.88;;;7.95;81.06
75317;BME280;63913;51.492;10.368;2023-12-29T06:20:34;97678.44;;;7.94;80.88
75317;BME280;63913;51.492;10.368;2023-12-29T06:22:59;97658.78;;;7.95;80.80
75317;BME280;63913;51.492;10.368;2023-12-29T06:25:26;97664.69;;;7.91;80.82
75317;BME280;63913;51.492;10.368;2023-12-29T06:27:51;97681.66;;;7.87;81.13
75317;BME280;63913;51.492;10.368;2023-12-29T06:30:16;97685.97;;;7.88;80.80
75317;BME280;63913;51.492;10.368;2023-12-29T06:32:42;97683.38;;;7.87;81.03
75317;BME280;63913;51.492;10.368;2023-12-29T06:35:07;97673.16;;;7.88;80.80
75317;BME280;63913;51.492;10.368;2023-12-29T06:37:36;97680.91;;;7.91;80.86
75317;BME280;63913;51.492;10.368;2023-12-29T06:40:02;97690.28;;;7.91;80.73
75317;BME280;63913;51.492;10.368;2023-12-29T06:42:28;97690.34;;;7.94;80.75
75317;BME280;63913;51.492;10.368;2023-12-29T06:44:54;97680.13;;;7.95;80.27
75317;BME280;63913;51.492;10.368;2023-12-29T06:47:19;97685.25;;;7.95;80.84
75317;BME280;63913;51.492;10.368;2023-12-29T06:49:44;97694.63;;;7.95;80.79
75317;BME280;63913;51.492;10.368;2023-12-29T06:52:10;97697.25;;;7.98;80.56
75317;BME280;63913;51.492;10.368;2023-12-29T06:54:35;97682.00;;;8.02;80.69
75317;BME280;63913;51.492;10.368;2023-12-29T06:57:00;97672.63;;;8.04;80.39
75317;BME280;63913;51.492;10.368;2023-12-29T06:59:26;97675.06;;;7.98;81.20
75317;BME280;63913;51.492;10.368;2023-12-29T07:01:51;97680.25;;;8.01;80.96
75317;BME280;63913;51.492;10.368;2023-12-29T07:04:16;97686.09;;;7.96;81.24
75317;BME280;63913;51.492;10.368;2023-12-29T07:06:42;97692.91;;;7.94;81.50
75317;BME280;63913;51.492;10.368;2023-12-29T07:09:08;97690.34;;;7.95;81.69
75317;BME280;63913;51.492;10.368;2023-12-29T07:11:35;97688.81;;;8.02;81.23
75317;BME280;63913;51.492;10.368;2023-12-29T07:14:00;97695.56;;;7.98;81.67
75317;BME280;63913;51.492;10.368;2023-12-29T07:16:26;97693.06;;;8.03;81.25
75317;BME280;63913;51.492;10.368;2023-12-29T07:18:51;97695.59;;;8.00;81.51
75317;BME280;63913;51.492;10.368;2023-12-29T07:21:17;97709.13;;;7.96;82.54
75317;BME280;63913;51.492;10.368;2023-12-29T07:23:43;97711.75;;;7.97;82.05
75317;BME280;63913;51.492;10.368;2023-12-29T07:26:09;97704.94;;;7.98;82.15
75317;BME280;63913;51.492;10.368;2023-12-29T07:28:34;97704.09;;;7.99;82.03
75317;BME280;63913;51.492;10.368;2023-12-29T07:31:00;97701.47;;;7.96;82.49
75317;BME280;63913;51.492;10.368;2023-12-29T07:33:25;97696.34;;;7.94;82.39
75317;BME280;63913;51.492;10.368;2023-12-29T07:35:51;97697.97;;;7.91;82.95
75317;BME280;63913;51.492;10.368;2023-12-29T07:38:17;97708.19;;;7.91;83.20
75317;BME280;63913;51.492;10.368;2023-12-29T07:40:42;97693.72;;;7.91;83.16
75317;BME280;63913;51.492;10.368;2023-12-29T07:43:08;97713.34;;;7.92;82.96
75317;BME280;63913;51.492;10.368;2023-12-29T07:45:34;97709.94;;;7.92;83.38
75317;BME280;63913;51.492;10.368;2023-12-29T07:48:02;97709.06;;;7.91;83.27
75317;BME280;63913;51.492;10.368;2023-12-29T07:50:27;97715.09;;;7.93;83.55
75317;BME280;63913;51.492;10.368;2023-12-29T07:52:52;97718.50;;;7.94;83.64
75317;BME280;63913;51.492;10.368;2023-12-29T07:55:18;97716.91;;;7.99;83.54
75317;BME280;63913;51.492;10.368;2023-12-29T07:57:43;97717.69;;;7.96;83.80
75317;BME280;63913;51.492;10.368;2023-12-29T08:00:09;97729.66;;;7.97;83.81
75317;BME280;63913;51.492;10.368;2023-12-29T08:02:38;97725.41;;;7.98;83.86
75317;BME280;63913;51.492;10.368;2023-12-29T08:05:03;97725.41;;;7.98;83.94
75317;BME280;63913;51.492;10.368;2023-12-29T08:07:30;97719.50;;;8.00;83.71
75317;BME280;63913;51.492;10.368;2023-12-29T08:09:55;97739.97;;;8.00;84.14
75317;BME280;63913;51.492;10.368;2023-12-29T08:12:20;97727.19;;;8.02;83.82
75317;BME280;63913;51.492;10.368;2023-12-29T08:14:46;97733.19;;;8.04;83.82
75317;BME280;63913;51.492;10.368;2023-12-29T08:17:11;97717.81;;;8.02;83.85
75317;BME280;63913;51.492;10.368;2023-12-29T08:19:38;97739.13;;;8.03;83.81
75317;BME280;63913;51.492;10.368;2023-12-29T08:22:03;97710.97;;;8.01;83.47
75317;BME280;63913;51.492;10.368;2023-12-29T08:24:28;97730.56;;;7.99;83.41
75317;BME280;63913;51.492;10.368;2023-12-29T08:26:54;97726.41;;;8.06;83.11
75317;BME280;63913;51.492;10.368;2023-12-29T08:29:19;97720.31;;;7.99;83.02
75317;BME280;63913;51.492;10.368;2023-12-29T08:31:45;97718.63;;;8.00;82.91
75317;BME280;63913;51.492;10.368;2023-12-29T08:34:10;97730.47;;;7.96;83.44
75317;BME280;63913;51.492;10.368;2023-12-29T08:36:36;97721.97;;;7.97;83.11
75317;BME280;63913;51.492;10.368;2023-12-29T08:39:02;97714.34;;;7.99;82.36
75317;BME280;63913;51.492;10.368;2023-12-29T08:41:27;97727.09;;;7.97;82.67
75317;BME280;63913;51.492;10.368;2023-12-29T08:43:52;97709.19;;;7.97;82.56
75317;BME280;63913;51.492;10.368;2023-12-29T08:46:18;97700.63;;;7.97;82.61
75317;BME280;63913;51.492;10.368;2023-12-29T08:48:44;97708.19;;;7.91;82.26
75317;BME280;63913;51.492;10.368;2023-12-29T08:51:09;97714.22;;;7.93;82.54
75317;BME280;63913;51.492;10.368;2023-12-29T08:53:34;97716.09;;;8.01;81.94
75317;BME280;63913;51.492;10.368;2023-12-29T08:56:01;97731.47;;;8.01;82.03
75317;BME280;63913;51.492;10.368;2023-12-29T08:58:27;97710.16;;;8.02;82.30
75317;BME280;63913;51.492;10.368;2023-12-29T09:00:53;97713.53;;;8.03;82.24
75317;BME280;63913;51.492;10.368;2023-12-29T09:03:18;97730.56;;;7.99;82.80
75317;BME280;63913;51.492;10.368;2023-12-29T09:05:44;97711.88;;;8.05;82.76
75317;BME280;63913;51.492;10.368;2023-12-29T09:08:09;97704.16;;;8.02;83.04
75317;BME280;63913;51.492;10.368;2023-12-29T09:10:34;97707.66;;;8.07;83.17
75317;BME280;63913;51.492;10.368;2023-12-29T09:13:00;97721.44;;;8.14;82.45
75317;BME280;63913;51.492;10.368;2023-12-29T09:15:25;97740.22;;;8.14;82.63
75317;BME280;63913;51.492;10.368;2023-12-29T09:17:50;97717.22;;;8.16;82.71
75317;BME280;63913;51.492;10.368;2023-12-29T09:20:16;97707.88;;;8.18;82.65
75317;BME280;63913;51.492;10.368;2023-12-29T09:22:42;97711.31;;;8.20;82.66
75317;BME280;63913;51.492;10.368;2023-12-29T09:25:08;97715.56;;;8.18;82.82
75317;BME280;63913;51.492;10.368;2023-12-29T09:27:33;97721.50;;;8.17;82.96
75317;BME280;63913;51.492;10.368;2023-12-29T09:29:58;97730.94;;;8.19;83.13
75317;BME280;63913;51.492;10.368;2023-12-29T09:32:23;97724.16;;;8.21;82.51
75317;BME280;63913;51.492;10.368;2023-12-29T09:34:49;97710.50;;;8.22;82.47
75317;BME280;63913;51.492;10.368;2023-12-29T09:37:14;97709.66;;;8.22;82.25
75317;BME280;63913;51.492;10.368;2023-12-29T09:39:40;97711.44;;;8.27;82.05
75317;BME280;63913;51.492;10.368;2023-12-29T09:42:07;97726.16;;;8.34;81.69
75317;BME280;63913;51.492;10.368;2023-12-29T09:44:35;97720.16;;;8.34;81.97
75317;BME280;63913;51.492;10.368;2023-12-29T09:47:02;97714.22;;;8.35;82.13
75317;BME280;63913;51.492;10.368;2023-12-29T09:49:38;97725.34;;;8.38;81.59
75317;BME280;63913;51.492;10.368;2023-12-29T09:52:07;97722.00;;;8.41;81.52
75317;BME280;63913;51.492;10.368;2023-12-29T09:54:35;97733.09;;;8.41;82.11
75317;BME280;63913;51.492;10.368;2023-12-29T09:57:02;97722.06;;;8.46;81.51
75317;BME280;63913;51.492;10.368;2023-12-29T09:59:29;97722.97;;;8.48;81.97
75317;BME280;63913;51.492;10.368;2023-12-29T10:01:55;97710.94;;;8.45;82.45
75317;BME280;63913;51.492;10.368;2023-12-29T10:04:21;97724.63;;;8.46;82.28
75317;BME280;63913;51.492;10.368;2023-12-29T10:06:48;97710.22;;;8.52;81.75
75317;BME280;63913;51.492;10.368;2023-12-29T10:09:16;97703.41;;;8.51;81.65
75317;BME280;63913;51.492;10.368;2023-12-29T10:11:45;97697.50;;;8.57;82.21
75317;BME280;63913;51.492;10.368;2023-12-29T10:14:22;97701.72;;;8.55;83.15
75317;BME280;63913;51.492;10.368;2023-12-29T10:16:53;97716.22;;;8.51;84.51
75317;BME280;63913;51.492;10.368;2023-12-29T10:19:37;97716.09;;;8.47;85.23
75317;BME280;63913;51.492;10.368;2023-12-29T10:22:31;97712.72;;;8.48;86.11
75317;BME280;63913;51.492;10.368;2023-12-29T10:25:01;97708.38;;;8.45;85.86
75317;BME280;63913;51.492;10.368;2023-12-29T10:27:27;97700.63;;;8.40;86.61
75317;BME280;63913;51.492;10.368;2023-12-29T10:29:52;97710.03;;;8.40;87.27
75317;BME280;63913;51.492;10.368;2023-12-29T10:32:18;97711.69;;;8.38;87.62
75317;BME280;63913;51.492;10.368;2023-12-29T10:34:43;97698.84;;;8.35;88.82
75317;BME280;63913;51.492;10.368;2023-12-29T10:37:08;97707.22;;;8.29;90.14
75317;BME280;63913;51.492;10.368;2023-12-29T10:39:38;97708.81;;;8.23;92.07
75317;BME280;63913;51.492;10.368;2023-12-29T10:42:05;97698.50;;;8.18;92.03
75317;BME280;63913;51.492;10.368;2023-12-29T10:44:36;97708.78;;;8.21;93.97
75317;BME280;63913;51.492;10.368;2023-12-29T10:47:11;97694.22;;;8.17;94.24
75317;BME280;63913;51.492;10.368;2023-12-29T10:49:37;97717.19;;;8.14;94.25
75317;BME280;63913;51.492;10.368;2023-12-29T10:52:11;97701.00;;;8.15;93.16
75317;BME280;63913;51.492;10.368;2023-12-29T10:54:37;97705.25;;;8.15;95.20
75317;BME280;63913;51.492;10.368;2023-12-29T10:57:03;97702.66;;;8.13;94.84
75317;BME280;63913;51.492;10.368;2023-12-29T10:59:28;97696.63;;;8.11;94.35
75317;BME280;63913;51.492;10.368;2023-12-29T11:01:55;97707.00;;;8.17;93.91
75317;BME280;63913;51.492;10.368;2023-12-29T11:04:24;97708.75;;;8.18;94.06
75317;BME280;63913;51.492;10.368;2023-12-29T11:06:49;97702.75;;;8.19;92.65
75317;BME280;63913;51.492;10.368;2023-12-29T11:09:30;97707.94;;;8.22;93.19
75317;BME280;63913;51.492;10.368;2023-12-29T11:11:57;97707.88;;;8.19;93.34
75317;BME280;63913;51.492;10.368;2023-12-29T11:14:25;97705.38;;;8.22;93.52
75317;BME280;63913;51.492;10.368;2023-12-29T11:16:51;97700.28;;;8.22;95.70
75317;BME280;63913;51.492;10.368;2023-12-29T11:19:18;97710.47;;;8.21;95.21
75317;BME280;63913;51.492;10.368;2023-12-29T11:21:44;97713.00;;;8.19;96.51
75317;BME280;63913;51.492;10.368;2023-12-29T11:24:09;97707.09;;;8.22;96.59
75317;BME280;63913;51.492;10.368;2023-12-29T11:26:36;97718.91;;;8.15;96.32
75317;BME280;63913;51.492;10.368;2023-12-29T11:29:02;97720.59;;;8.15;97.83
75317;BME280;63913;51.492;10.368;2023-12-29T11:31:30;97732.41;;;8.07;99.27
75317;BME280;63913;51.492;10.368;2023-12-29T11:34:12;97737.44;;;8.03;100.00
75317;BME280;63913;51.492;10.368;2023-12-29T11:36:45;97731.47;;;8.03;100.00
75317;BME280;63913;51.492;10.368;2023-12-29T11:39:20;97727.94;;;7.96;100.00
75317;BME280;63913;51.492;10.368;2023-12-29T11:42:40;97710.84;;;7.95;100.00
75317;BME280;63913;51.492;10.368;2023-12-29T11:45:25;97707.34;;;7.90;100.00
75317;BME280;63913;51.492;10.368;2023-12-29T11:47:51;97714.97;;;7.89;100.00
75317;BME280;63913;51.492;10.368;2023-12-29T11:50:28;97701.28;;;7.87;100.00
75317;BME280;63913;51.492;10.368;2023-12-29T11:52:53;97706.41;;;7.87;100.00
75317;BME280;63913;51.492;10.368;2023-12-29T11:55:19;97703.00;;;7.88;100.00
75317;BME280;63913;51.492;10.368;2023-12-29T11:57:45;97708.13;;;7.86;100.00
75317;BME280;63913;51.492;10.368;2023-12-29T12:00:10;97686.56;;;7.75;100.00
75317;BME280;63913;51.492;10.368;2023-12-29T12:02:39;97680.50;;;7.70;100.00
75317;BME280;63913;51.492;10.368;2023-12-29T12:05:09;97680.47;;;7.69;100.00
75317;BME280;63913;51.492;10.368;2023-12-29T12:12:44;97678.78;;;7.71;100.00
75317;BME280;63913;51.492;10.368;2023-12-29T12:18:04;97675.44;;;7.73;100.00
75317;BME280;63913;51.492;10.368;2023-12-29T12:20:32;97671.19;;;7.74;100.00
75317;BME280;63913;51.492;10.368;2023-12-29T12:23:01;97671.19;;;7.74;100.00
75317;BME280;63913;51.492;10.368;2023-12-29T12:25:29;97667.78;;;7.75;100.00
75317;BME280;63913;51.492;10.368;2023-12-29T12:27:55;97660.94;;;7.74;100.00
75317;BME280;63913;51.492;10.368;2023-12-29T12:30:21;97663.56;;;7.77;100.00
75317;BME280;63913;51.492;10.368;2023-12-29T12:32:57;97662.63;;;7.73;100.00
75317;BME280;63913;51.492;10.368;2023-12-29T12:35:22;97665.16;;;7.70;100.00
75317;BME280;63913;51.492;10.368;2023-12-29T12:37:48;97658.31;;;7.69;100.00
75317;BME280;63913;51.492;10.368;2023-12-29T12:40:26;97656.56;;;7.68;100.00
75317;BME280;63913;51.492;10.368;2023-12-29T12:42:52;97636.00;;;7.63;100.00
75317;BME280;63913;51.492;10.368;2023-12-29T12:45:20;97641.06;;;7.60;100.00
75317;BME280;63913;51.492;10.368;2023-12-29T12:47:52;97636.78;;;7.59;100.00
75317;BME280;63913;51.492;10.368;2023-12-29T12:50:18;97646.22;;;7.63;100.00
75317;BME280;63913;51.492;10.368;2023-12-29T12:52:44;97648.78;;;7.62;100.00
75317;BME280;63913;51.492;10.368;2023-12-29T12:55:11;97641.13;;;7.63;100.00
75317;BME280;63913;51.492;10.368;2023-12-29T12:57:38;97661.59;;;7.63;100.00
75317;BME280;63913;51.492;10.368;2023-12-29T13:00:04;97671.03;;;7.66;100.00
75317;BME280;63913;51.492;10.368;2023-12-29T13:02:31;97653.91;;;7.63;100.00
75317;BME280;63913;51.492;10.368;2023-12-29T13:04:58;97645.50;;;7.69;100.00
75317;BME280;63913;51.492;10.368;2023-12-29T13:07:24;97650.63;;;7.69;100.00
75317;BME280;63913;51.492;10.368;2023-12-29T13:09:50;97647.25;;;7.70;100.00
75317;BME280;63913;51.492;10.368;2023-12-29T13:12:17;97640.53;;;7.77;100.00
75317;BME280;63913;51.492;10.368;2023-12-29T13:14:45;97637.19;;;7.81;100.00